Portada
METAR-TAF:

METAR-TAF

Aeropuertos :

Aeropuerto Internacional El Alto

La Paz, Bolivia

latitud: 16-31S, longitud: 068-11W, altitud: 4058 m

Observación

El informe se hizo hace 26 minutos, a las 05:00 UTC
Viento 4 kt del norte-noreste
Temperatura -2°C
Humedad 69%
Presión 1036 hPa
Visibilidad: 6000 m
Escasas nubes a una altura de 800 ft

METAR: SLLP 240500Z 03004KT 6000 FEW008 M02/M07 Q1036

Hora: 01:26 (05:26 UTC)

Pronóstico

El informe se hizo hace 6 horas y 36 minutos, a las 22:50 UTC
Pronóstico válido del 24 a las 00 UTC al 24 a las 24 UTC
Viento 5 kt del noreste
Visibilidad 10 km o más
Temporalmente
del 24 a las 04 UTC al 24 a las 08 UTC
Visibilidad: 4000 m
humo
Evolucionando progresivamente
del 24 a las 12 UTC al 24 a las 16 UTC
Viento 10 kt del oeste-noroeste
Escasas nubes a una altura de 1700 ft

TAF: SLLP 232250Z 2400/2424 05005KT 9999 NSC TX15/2420Z TNM04/2410Z TEMPO 2404/2408 4000 FU BECMG 2412/2416 30010KT FEW017

Observaciones y pronósticos meteorológicos de más de 4000 aeropuertos (mensajes METAR y TAF).

Los puntos amarillos y rojos representan las estaciones disponibles.

Ponga el ratón en el punto deseado para ver el nombre de la estación.

Haga clic para ver las observaciones y los pronósticos meteorológicos.

Para cambiar el mapa : haga clic en los botones verdes con una cruz de color negro para hacer un zoom, en el botón verde con un guión para alejar o en las flechas verdes para mapas adyacentes.


METAR-TAF: